createdAt,value
2019-02-02T00:03:08.570Z,1.81
2019-02-02T00:08:12.238Z,1.80
2019-02-02T00:13:15.652Z,1.77
2019-02-02T00:18:19.065Z,1.81
2019-02-02T00:23:22.562Z,1.85
2019-02-02T00:28:26.088Z,1.83
2019-02-02T00:33:29.574Z,1.81
2019-02-02T00:38:33.062Z,1.77
2019-02-02T00:43:38.554Z,1.72
2019-02-02T00:48:41.656Z,1.76
2019-02-02T00:53:45.241Z,1.77
2019-02-02T00:58:48.653Z,1.76
2019-02-02T01:03:52.075Z,1.76
2019-02-02T01:08:55.565Z,1.76
2019-02-02T01:13:59.131Z,1.71
2019-02-02T01:19:02.618Z,1.73
2019-02-02T01:24:06.485Z,1.79
2019-02-02T01:29:09.914Z,1.82
2019-02-02T01:34:13.343Z,1.84
2019-02-02T01:39:16.763Z,1.85
2019-02-02T01:44:20.267Z,1.92
2019-02-02T01:49:23.668Z,1.86
2019-02-02T01:54:27.091Z,1.86
2019-02-02T01:59:30.585Z,1.88
2019-02-02T02:04:33.948Z,1.88
2019-02-02T02:09:37.365Z,1.87
2019-02-02T02:14:40.799Z,1.85
2019-02-02T02:19:44.210Z,1.87
2019-02-02T02:24:47.637Z,1.86
2019-02-02T02:29:51.111Z,1.86
2019-02-02T02:34:54.541Z,1.87
2019-02-02T02:39:57.950Z,1.86
2019-02-02T02:45:01.403Z,1.86
2019-02-02T02:50:10.964Z,1.89
2019-02-02T02:55:15.709Z,1.93
2019-02-02T03:00:24.839Z,1.90
2019-02-02T03:05:28.402Z,1.82
2019-02-02T03:10:31.834Z,1.85
2019-02-02T03:15:35.265Z,1.90
2019-02-02T03:20:38.692Z,1.95
2019-02-02T03:25:42.145Z,1.99
2019-02-02T03:30:45.612Z,2.02
2019-02-02T03:35:48.991Z,2.03
2019-02-02T03:40:52.605Z,2.03
2019-02-02T03:45:56.096Z,2.06
2019-02-02T03:50:59.533Z,2.05
2019-02-02T03:56:02.948Z,2.00
2019-02-02T04:01:06.375Z,1.99
2019-02-02T04:06:09.934Z,2.01
2019-02-02T04:11:13.358Z,1.97
2019-02-02T04:16:16.855Z,1.95
2019-02-02T04:21:20.285Z,2.04
2019-02-02T04:26:23.705Z,2.09
2019-02-02T04:31:27.206Z,2.15
2019-02-02T04:36:30.695Z,2.20
2019-02-02T04:41:34.191Z,2.23
2019-02-02T04:46:37.631Z,2.21
2019-02-02T04:51:41.158Z,2.19
2019-02-02T04:56:44.609Z,2.18
2019-02-02T05:01:48.064Z,2.21
2019-02-02T05:06:51.473Z,2.18
2019-02-02T05:11:54.881Z,2.19
2019-02-02T05:16:58.292Z,2.23
2019-02-02T05:22:01.720Z,2.24
2019-02-02T05:27:05.153Z,2.28
2019-02-02T05:32:08.583Z,2.31
2019-02-02T05:37:12.031Z,2.35
2019-02-02T05:42:15.444Z,2.36
2019-02-02T05:47:18.857Z,2.38
2019-02-02T05:52:22.345Z,2.40
2019-02-02T05:57:25.794Z,2.43
2019-02-02T06:02:29.243Z,2.45
2019-02-02T06:07:32.804Z,2.46
2019-02-02T06:12:36.218Z,2.47
2019-02-02T06:17:39.658Z,2.44
2019-02-02T06:22:43.114Z,2.43
2019-02-02T06:27:46.601Z,2.41
2019-02-02T06:32:50.035Z,2.33
2019-02-02T06:37:53.537Z,2.31
2019-02-02T06:42:56.958Z,2.26
2019-02-02T06:48:00.630Z,2.21
2019-02-02T06:53:06.756Z,2.15
2019-02-02T06:58:09.857Z,2.13
2019-02-02T07:03:13.477Z,2.14
2019-02-02T07:08:16.926Z,2.20
2019-02-02T07:13:20.367Z,2.22
2019-02-02T07:18:23.807Z,2.29
2019-02-02T07:23:27.231Z,2.32
2019-02-02T07:28:30.651Z,2.37
2019-02-02T07:33:34.079Z,2.38
2019-02-02T07:38:37.569Z,2.33
2019-02-02T07:43:40.979Z,2.29
2019-02-02T07:48:44.407Z,2.32
2019-02-02T07:53:47.814Z,2.23
2019-02-02T07:58:51.262Z,2.14
2019-02-02T08:03:54.696Z,1.98
2019-02-02T08:08:58.114Z,2.06
2019-02-02T08:14:01.551Z,2.05
2019-02-02T08:19:05.232Z,2.12
2019-02-02T08:24:08.664Z,2.19
2019-02-02T08:29:12.081Z,2.26
2019-02-02T08:34:15.506Z,2.34
2019-02-02T08:39:28.928Z,2.42
2019-02-02T08:44:24.142Z,2.48
2019-02-02T08:49:27.578Z,2.55
2019-02-02T08:54:31.093Z,2.59
2019-02-02T08:59:34.515Z,2.62
2019-02-02T09:04:37.983Z,2.50
2019-02-02T09:09:41.445Z,2.47
2019-02-02T09:14:44.877Z,2.55
2019-02-02T09:19:48.316Z,2.57
2019-02-02T09:24:52.115Z,2.48
2019-02-02T09:29:55.746Z,2.51
2019-02-02T09:34:59.156Z,2.53
2019-02-02T09:40:02.663Z,2.51
2019-02-02T09:45:09.302Z,2.53
2019-02-02T09:50:15.694Z,2.57
2019-02-02T09:55:21.397Z,2.58
2019-02-02T10:00:27.452Z,2.76
2019-02-02T10:05:31.926Z,2.73
2019-02-02T10:10:35.707Z,2.62
2019-02-02T10:15:39.166Z,2.62
2019-02-02T10:20:42.582Z,2.77
2019-02-02T10:25:46.036Z,2.73
2019-02-02T10:30:49.611Z,2.69
2019-02-02T10:35:53.044Z,2.62
2019-02-02T10:40:56.483Z,2.52
2019-02-02T10:45:59.914Z,2.55
2019-02-02T10:51:03.327Z,2.55
2019-02-02T10:56:06.770Z,2.63
2019-02-02T11:01:10.217Z,2.54
2019-02-02T11:06:13.667Z,2.50
2019-02-02T11:11:17.116Z,2.58
2019-02-02T11:16:20.542Z,2.62
2019-02-02T11:21:24.008Z,2.60
2019-02-02T11:26:27.538Z,2.58
2019-02-02T11:31:30.921Z,2.52
2019-02-02T11:36:34.365Z,2.57
2019-02-02T11:41:37.794Z,2.63
2019-02-02T11:46:41.248Z,2.61
2019-02-02T11:51:44.705Z,2.59
2019-02-02T11:56:48.128Z,2.52
2019-02-02T12:01:51.593Z,2.53
2019-02-02T12:06:55.019Z,2.45
2019-02-02T12:11:58.628Z,2.56
2019-02-02T12:17:02.050Z,2.58
2019-02-02T12:22:05.626Z,2.62
2019-02-02T12:27:09.071Z,2.64
2019-02-02T12:32:12.499Z,2.65
2019-02-02T12:37:16.104Z,2.58
2019-02-02T12:42:19.519Z,2.60
2019-02-02T12:47:22.964Z,2.62
2019-02-02T12:52:26.454Z,2.56
2019-02-02T12:57:30.029Z,2.60
2019-02-02T13:02:38.259Z,2.62
2019-02-02T13:07:38.649Z,2.74
2019-02-02T13:12:42.147Z,2.76
2019-02-02T13:17:45.600Z,2.55
2019-02-02T13:22:49.050Z,2.48
2019-02-02T13:27:52.761Z,2.46
2019-02-02T13:32:56.199Z,2.42
2019-02-02T13:37:59.635Z,2.53
2019-02-02T13:43:03.124Z,2.58
2019-02-02T13:48:06.634Z,2.60
2019-02-02T13:53:10.235Z,2.52
2019-02-02T13:58:13.662Z,2.30
2019-02-02T14:03:17.128Z,2.20
2019-02-02T14:08:20.558Z,2.08
2019-02-02T14:13:24.004Z,2.04
2019-02-02T14:18:27.443Z,2.07
2019-02-02T14:23:30.870Z,2.23
2019-02-02T14:28:34.366Z,2.26
2019-02-02T14:33:37.795Z,2.33
2019-02-02T14:38:41.273Z,2.35
2019-02-02T14:43:44.768Z,2.32
2019-02-02T14:48:48.206Z,2.44
2019-02-02T14:53:51.684Z,2.14
2019-02-02T15:10:14.331Z,1.71
2019-02-02T15:15:18.520Z,1.88
2019-02-02T15:20:27.416Z,1.91
2019-02-02T15:25:30.913Z,2.00
2019-02-02T15:30:36.300Z,2.11
2019-02-02T15:35:39.851Z,2.18
2019-02-02T15:40:43.390Z,2.22
2019-02-02T15:45:46.895Z,2.27
2019-02-02T15:50:50.405Z,2.39
2019-02-02T15:55:54.002Z,2.41
2019-02-02T16:00:57.510Z,2.38
2019-02-02T16:06:01.071Z,2.40
2019-02-02T16:11:05.068Z,2.32
2019-02-02T16:16:08.826Z,2.35
2019-02-02T16:21:12.246Z,2.31
2019-02-02T16:26:15.719Z,2.28
2019-02-02T16:31:19.437Z,2.29
2019-02-02T16:36:22.858Z,2.34
2019-02-02T16:41:26.376Z,2.29
2019-02-02T16:46:29.870Z,2.18
2019-02-02T16:51:33.312Z,2.07
2019-02-02T16:56:36.751Z,2.04
2019-02-02T17:01:40.211Z,2.04
2019-02-02T17:06:43.878Z,2.04
2019-02-02T17:11:47.410Z,1.99
2019-02-02T17:16:50.895Z,1.97
2019-02-02T17:21:55.212Z,2.04
2019-02-02T17:26:58.626Z,2.05
2019-02-02T17:32:02.142Z,2.13
2019-02-02T17:37:05.682Z,2.12
2019-02-02T17:42:09.121Z,1.98
2019-02-02T17:47:12.572Z,2.00
2019-02-02T17:52:16.934Z,2.03
2019-02-02T17:57:20.443Z,2.11
2019-02-02T18:02:23.871Z,2.10
2019-02-02T18:07:27.318Z,2.11
2019-02-02T18:12:30.779Z,2.09
2019-02-02T18:17:34.207Z,2.07
2019-02-02T18:22:37.624Z,2.13
2019-02-02T18:27:41.155Z,2.04
2019-02-02T18:32:44.604Z,1.98
2019-02-02T18:37:48.139Z,1.99
2019-02-02T18:42:52.030Z,1.95
2019-02-02T18:47:55.549Z,1.98
2019-02-02T18:53:00.254Z,2.00
2019-02-02T18:58:03.690Z,2.05
2019-02-02T19:03:07.524Z,2.08
2019-02-02T19:08:10.951Z,2.10
2019-02-02T19:13:14.385Z,2.12
2019-02-02T19:18:17.881Z,2.02
2019-02-02T19:23:25.261Z,1.90
2019-02-02T19:28:39.171Z,1.99
2019-02-02T19:33:32.069Z,1.95
2019-02-02T19:38:35.545Z,1.85
2019-02-02T19:43:38.975Z,1.85
2019-02-02T19:48:42.587Z,1.89
2019-02-02T19:53:46.096Z,1.94
2019-02-02T19:58:49.540Z,1.97
2019-02-02T20:03:56.719Z,1.97
2019-02-02T20:09:00.324Z,2.00
2019-02-02T20:14:04.337Z,1.96
2019-02-02T20:19:07.782Z,1.97
2019-02-02T20:24:11.290Z,1.89
2019-02-02T20:29:14.710Z,1.94
2019-02-02T20:34:18.154Z,1.98
2019-02-02T20:39:21.615Z,1.98
2019-02-02T20:44:25.042Z,1.88
2019-02-02T20:49:28.565Z,1.79
2019-02-02T20:54:32.000Z,1.71
2019-02-02T20:59:35.506Z,1.75
2019-02-02T21:04:39.090Z,1.78
2019-02-02T21:09:42.536Z,1.71
2019-02-02T21:14:46.010Z,1.68
2019-02-02T21:19:49.491Z,1.71
2019-02-02T21:24:52.927Z,1.67
2019-02-02T21:29:56.671Z,1.71
2019-02-02T21:35:00.142Z,1.71
2019-02-02T21:40:05.255Z,1.69
2019-02-02T21:45:11.641Z,1.71
2019-02-02T21:50:38.533Z,1.75
2019-02-02T21:55:41.983Z,1.83
2019-02-02T22:00:45.586Z,1.85
2019-02-02T22:05:49.042Z,1.88
2019-02-02T22:10:52.492Z,1.78
2019-02-02T22:15:56.032Z,1.66
2019-02-02T22:20:59.462Z,1.78
2019-02-02T22:26:02.893Z,1.81
2019-02-02T22:31:06.372Z,1.84
2019-02-02T22:36:09.863Z,1.87
2019-02-02T22:41:13.315Z,1.92
2019-02-02T22:46:16.877Z,1.89
2019-02-02T22:51:20.307Z,1.83
2019-02-02T22:56:24.199Z,1.84
2019-02-02T23:01:29.257Z,1.85
2019-02-02T23:06:44.202Z,1.92
2019-02-02T23:11:50.697Z,1.92
2019-02-02T23:16:54.204Z,1.89
2019-02-02T23:21:57.658Z,1.79
2019-02-02T23:27:01.099Z,1.87
2019-02-02T23:32:04.889Z,1.88
2019-02-02T23:37:08.748Z,1.82
2019-02-02T23:42:12.277Z,1.86
2019-02-02T23:47:15.730Z,1.77
2019-02-02T23:52:19.197Z,1.79
2019-02-02T23:57:22.655Z,1.88
